createdAt,value
2018-02-04T00:00:09.295Z,90.27
2018-02-04T00:02:38.611Z,90.08
2018-02-04T00:05:07.865Z,90.17
2018-02-04T00:07:36.462Z,90.16
2018-02-04T00:10:05.046Z,90.05
2018-02-04T00:12:34.135Z,89.87
2018-02-04T00:15:03.608Z,90.51
2018-02-04T00:17:32.048Z,90.90
2018-02-04T00:20:00.387Z,91.03
2018-02-04T00:22:38.557Z,90.54
2018-02-04T00:25:06.931Z,90.68
2018-02-04T00:27:35.943Z,90.56
2018-02-04T00:30:04.813Z,90.47
2018-02-04T00:32:33.772Z,90.07
2018-02-04T00:35:02.136Z,89.82
2018-02-04T00:37:30.586Z,89.87
2018-02-04T00:39:59.274Z,89.68
2018-02-04T00:42:28.389Z,89.83
2018-02-04T00:44:57.581Z,89.53
2018-02-04T00:47:26.795Z,89.50
2018-02-04T00:49:55.121Z,89.39
2018-02-04T00:52:23.433Z,89.42
2018-02-04T00:54:52.522Z,89.54
2018-02-04T00:57:21.694Z,88.87
2018-02-04T00:59:50.167Z,89.19
2018-02-04T01:02:19.097Z,89.35
2018-02-04T01:04:48.249Z,89.07
2018-02-04T01:07:16.706Z,88.88
2018-02-04T01:09:45.134Z,88.50
2018-02-04T01:12:14.215Z,88.84
2018-02-04T01:14:42.528Z,88.62
2018-02-04T01:17:11.215Z,89.27
2018-02-04T01:19:39.594Z,89.30
2018-02-04T01:22:08.062Z,89.33
2018-02-04T01:24:36.445Z,88.75
2018-02-04T01:27:05.612Z,89.77
2018-02-04T01:29:34.016Z,89.64
2018-02-04T01:32:03.294Z,88.69
2018-02-04T01:34:32.378Z,89.50
2018-02-04T01:37:01.346Z,89.24
2018-02-04T01:39:30.739Z,88.68
2018-02-04T01:41:59.109Z,88.86
2018-02-04T01:44:27.844Z,89.08
2018-02-04T01:46:56.238Z,89.05
2018-02-04T01:49:25.381Z,89.61
2018-02-04T01:51:53.792Z,89.30
2018-02-04T01:54:22.088Z,89.58
2018-02-04T01:56:51.222Z,89.18
2018-02-04T01:59:19.538Z,89.41
2018-02-04T02:01:48.608Z,89.51
2018-02-04T02:04:16.922Z,89.84
2018-02-04T02:06:46.026Z,89.68
2018-02-04T02:09:15.197Z,88.62
2018-02-04T02:11:43.507Z,88.79
2018-02-04T02:14:12.562Z,88.64
2018-02-04T02:16:40.995Z,88.81
2018-02-04T02:19:09.416Z,89.69
2018-02-04T02:21:37.753Z,89.28
2018-02-04T02:24:06.090Z,89.88
2018-02-04T02:26:35.202Z,91.06
2018-02-04T02:29:03.524Z,91.25
2018-02-04T02:31:31.827Z,91.54
2018-02-04T02:34:00.166Z,91.83
2018-02-04T02:36:30.002Z,92.39
2018-02-04T02:38:59.131Z,92.21
2018-02-04T02:41:27.450Z,92.04
2018-02-04T02:43:55.781Z,92.46
2018-02-04T02:46:24.871Z,92.49
2018-02-04T02:48:54.157Z,92.66
2018-02-04T02:51:23.253Z,92.79
2018-02-04T02:53:51.573Z,92.87
2018-02-04T02:56:19.898Z,92.84
2018-02-04T02:58:48.198Z,92.18
2018-02-04T03:01:17.378Z,91.30
2018-02-04T03:03:46.478Z,91.21
2018-02-04T03:06:15.878Z,91.23
2018-02-04T03:08:44.976Z,91.29
2018-02-04T03:11:14.093Z,91.33
2018-02-04T03:13:42.454Z,91.22
2018-02-04T03:16:11.698Z,91.26
2018-02-04T03:18:40.038Z,91.48
2018-02-04T03:21:08.359Z,91.36
2018-02-04T03:23:36.778Z,91.30
2018-02-04T03:26:05.879Z,90.85
2018-02-04T03:28:35.083Z,91.15
2018-02-04T03:31:03.408Z,90.96
2018-02-04T03:33:31.753Z,90.88
2018-02-04T03:36:00.638Z,90.64
2018-02-04T03:38:29.782Z,91.05
2018-02-04T03:40:58.109Z,90.95
2018-02-04T03:43:26.412Z,91.08
2018-02-04T03:45:54.747Z,90.81
2018-02-04T03:48:23.128Z,90.99
2018-02-04T03:50:51.431Z,91.14
2018-02-04T03:53:19.900Z,91.24
2018-02-04T03:55:48.386Z,90.71
2018-02-04T03:58:16.691Z,90.62
2018-02-04T04:00:45.035Z,91.10
2018-02-04T04:03:13.474Z,90.53
2018-02-04T04:05:42.544Z,90.46
2018-02-04T04:08:10.884Z,90.53
2018-02-04T04:10:39.196Z,90.22
2018-02-04T04:13:08.319Z,90.39
2018-02-04T04:15:36.634Z,90.18
2018-02-04T04:18:04.931Z,89.81
2018-02-04T04:20:34.040Z,89.85
2018-02-04T04:23:02.352Z,89.80
2018-02-04T04:25:30.694Z,89.88
2018-02-04T04:27:58.996Z,90.12
2018-02-04T04:30:28.122Z,90.08
2018-02-04T04:32:57.176Z,89.96
2018-02-04T04:35:26.244Z,89.58
2018-02-04T04:37:54.584Z,89.35
2018-02-04T04:40:22.910Z,89.31
2018-02-04T04:42:51.239Z,89.39
2018-02-04T04:45:19.535Z,89.81
2018-02-04T04:47:48.709Z,89.82
2018-02-04T04:50:17.302Z,89.26
2018-02-04T04:52:45.603Z,89.19
2018-02-04T04:55:14.048Z,88.85
2018-02-04T04:57:42.471Z,89.41
2018-02-04T05:00:10.804Z,89.42
2018-02-04T05:02:39.195Z,88.88
2018-02-04T05:05:07.607Z,89.28
2018-02-04T05:07:36.007Z,89.83
2018-02-04T05:10:05.064Z,89.90
2018-02-04T05:12:33.394Z,89.66
2018-02-04T05:15:01.710Z,89.16
2018-02-04T05:17:30.037Z,89.52
2018-02-04T05:19:58.543Z,88.87
2018-02-04T05:22:26.890Z,88.81
2018-02-04T05:24:55.216Z,89.41
2018-02-04T05:27:23.998Z,89.15
2018-02-04T05:29:52.354Z,89.15
2018-02-04T05:32:20.907Z,89.33
2018-02-04T05:34:49.521Z,89.26
2018-02-04T05:37:18.868Z,89.60
2018-02-04T05:39:47.556Z,89.79
2018-02-04T05:42:17.413Z,90.60
2018-02-04T05:44:46.172Z,90.33
2018-02-04T05:47:15.534Z,89.53
2018-02-04T05:49:47.782Z,89.59
2018-02-04T05:52:16.369Z,89.56
2018-02-04T05:54:45.080Z,89.00
2018-02-04T05:57:13.666Z,89.48
2018-02-04T05:59:43.329Z,90.22
2018-02-04T06:02:11.943Z,90.68
2018-02-04T06:04:40.529Z,90.42
2018-02-04T06:07:09.040Z,91.24
2018-02-04T06:09:38.600Z,91.31
2018-02-04T06:12:07.166Z,90.81
2018-02-04T06:14:35.637Z,90.11
2018-02-04T06:17:04.219Z,89.92
2018-02-04T06:19:32.710Z,90.24
2018-02-04T06:22:01.691Z,89.94
2018-02-04T06:24:30.042Z,90.20
2018-02-04T06:26:58.699Z,90.58
2018-02-04T06:29:28.261Z,90.61
2018-02-04T06:31:56.850Z,91.17
2018-02-04T06:34:25.655Z,91.74
2018-02-04T06:36:54.759Z,91.31
2018-02-04T06:39:23.451Z,91.19
2018-02-04T06:41:53.135Z,91.15
2018-02-04T06:44:21.703Z,90.17
2018-02-04T06:46:50.337Z,90.55
2018-02-04T06:49:19.990Z,90.25
2018-02-04T06:51:48.779Z,89.91
2018-02-04T06:54:17.411Z,89.74
2018-02-04T06:56:46.345Z,89.13
2018-02-04T06:59:14.866Z,89.32
2018-02-04T07:01:43.489Z,89.33
2018-02-04T07:04:12.082Z,89.25
2018-02-04T07:06:40.691Z,88.98
2018-02-04T07:09:09.205Z,88.87
2018-02-04T07:11:37.697Z,89.19
2018-02-04T07:14:06.287Z,89.24
2018-02-04T07:16:34.621Z,88.08
2018-02-04T07:19:02.918Z,89.02
2018-02-04T07:21:31.268Z,88.29
2018-02-04T07:24:00.090Z,89.07
2018-02-04T07:26:28.390Z,89.54
2018-02-04T07:28:56.829Z,87.83
2018-02-04T07:31:25.156Z,87.19
2018-02-04T07:33:53.473Z,87.57
2018-02-04T07:36:21.771Z,88.54
2018-02-04T07:38:50.235Z,88.92
2018-02-04T07:41:18.772Z,88.91
2018-02-04T07:43:47.084Z,88.79
2018-02-04T07:46:16.313Z,88.98
2018-02-04T07:48:45.444Z,88.88
2018-02-04T07:51:13.798Z,87.96
2018-02-04T07:53:42.122Z,88.69
2018-02-04T07:56:10.465Z,89.89
2018-02-04T07:58:38.817Z,90.17
2018-02-04T08:01:07.203Z,90.04
2018-02-04T08:03:35.542Z,90.06
2018-02-04T08:06:03.920Z,90.42
2018-02-04T08:08:32.328Z,90.67
2018-02-04T08:11:00.682Z,90.76
2018-02-04T08:13:29.052Z,90.88
2018-02-04T08:15:59.422Z,90.80
2018-02-04T08:18:27.737Z,91.19
2018-02-04T08:20:56.216Z,91.34
2018-02-04T08:23:24.595Z,90.64
2018-02-04T08:25:53.099Z,90.91
2018-02-04T08:28:22.391Z,91.13
2018-02-04T08:30:50.862Z,91.67
2018-02-04T08:33:19.984Z,91.48
2018-02-04T08:35:49.115Z,91.54
2018-02-04T08:38:17.421Z,91.61
2018-02-04T08:40:45.776Z,91.87
2018-02-04T08:43:14.099Z,91.90
2018-02-04T08:45:43.138Z,91.81
2018-02-04T08:48:13.055Z,91.98
2018-02-04T08:50:41.481Z,91.94
2018-02-04T08:53:09.809Z,92.37
2018-02-04T08:55:38.115Z,90.02
2018-02-04T08:58:06.456Z,91.25
2018-02-04T09:00:34.816Z,91.92
2018-02-04T09:03:03.152Z,92.35
2018-02-04T09:05:32.245Z,92.46
2018-02-04T09:08:00.720Z,91.63
2018-02-04T09:10:29.103Z,92.06
2018-02-04T09:12:58.457Z,92.42
2018-02-04T09:15:26.840Z,91.96
2018-02-04T09:17:55.171Z,91.81
2018-02-04T09:20:23.730Z,91.63
2018-02-04T09:22:52.177Z,91.56
2018-02-04T09:25:20.529Z,92.00
2018-02-04T09:27:53.804Z,91.40
2018-02-04T09:30:22.299Z,91.42
2018-02-04T09:32:50.706Z,91.16
2018-02-04T09:35:19.159Z,90.83
2018-02-04T09:37:47.614Z,91.40
2018-02-04T09:40:15.957Z,91.74
2018-02-04T09:42:44.420Z,91.77
2018-02-04T09:45:12.854Z,92.25
2018-02-04T09:47:41.475Z,92.24
2018-02-04T09:50:09.867Z,92.01
2018-02-04T09:52:39.389Z,92.77
2018-02-04T09:55:08.059Z,92.46
2018-02-04T09:57:36.777Z,92.39
2018-02-04T10:00:05.352Z,92.22
2018-02-04T10:02:34.534Z,91.61
2018-02-04T10:05:03.229Z,91.85
2018-02-04T10:07:32.801Z,91.92
2018-02-04T10:10:01.436Z,91.57
2018-02-04T10:12:30.027Z,91.72
2018-02-04T10:14:59.422Z,91.75
2018-02-04T10:17:29.183Z,92.03
2018-02-04T10:19:58.062Z,91.91
2018-02-04T10:22:26.937Z,91.04
2018-02-04T10:24:55.549Z,91.83
2018-02-04T10:27:24.440Z,91.93
2018-02-04T10:29:53.615Z,91.81
2018-02-04T10:32:22.142Z,91.97
2018-02-04T10:34:50.993Z,91.75
2018-02-04T10:37:19.778Z,92.30
2018-02-04T10:39:48.302Z,91.87
2018-02-04T10:42:16.908Z,91.54
2018-02-04T10:44:45.468Z,92.32
2018-02-04T10:47:14.168Z,91.99
2018-02-04T10:49:42.832Z,91.11
2018-02-04T10:52:12.602Z,89.93
2018-02-04T10:54:41.229Z,88.76
2018-02-04T10:57:09.940Z,88.31
2018-02-04T10:59:39.370Z,87.56
2018-02-04T11:02:07.958Z,87.68
2018-02-04T11:04:36.450Z,86.06
2018-02-04T11:07:05.007Z,86.48
2018-02-04T11:09:33.561Z,86.13
2018-02-04T11:12:02.229Z,84.79
2018-02-04T11:14:30.946Z,85.30
2018-02-04T11:16:59.561Z,83.88
2018-02-04T11:19:29.039Z,82.79
2018-02-04T11:21:57.669Z,84.80
2018-02-04T11:24:27.230Z,84.10
2018-02-04T11:26:56.146Z,83.13
2018-02-04T11:29:25.567Z,81.76
2018-02-04T11:31:54.447Z,81.28
2018-02-04T11:34:23.951Z,80.70
2018-02-04T11:36:54.283Z,82.12
2018-02-04T11:39:23.657Z,79.52
2018-02-04T11:41:52.417Z,82.12
2018-02-04T11:44:21.156Z,79.66
2018-02-04T11:46:49.947Z,80.87
2018-02-04T11:49:18.543Z,80.03
2018-02-04T11:51:47.112Z,79.53
2018-02-04T11:54:15.669Z,77.35
2018-02-04T11:56:45.373Z,78.67
2018-02-04T11:59:14.223Z,79.99
2018-02-04T12:01:42.814Z,80.20
2018-02-04T12:04:12.039Z,78.89
2018-02-04T12:06:41.108Z,80.71
2018-02-04T12:09:09.865Z,79.96
2018-02-04T12:11:39.952Z,79.36
2018-02-04T12:14:08.786Z,80.34
2018-02-04T12:16:37.817Z,80.24
2018-02-04T12:19:06.478Z,80.76
2018-02-04T12:21:35.525Z,80.09
2018-02-04T12:24:04.555Z,78.51
2018-02-04T12:26:33.801Z,79.30
2018-02-04T12:29:03.486Z,80.33
2018-02-04T12:31:33.106Z,79.65
2018-02-04T12:34:01.740Z,79.75
2018-02-04T12:36:30.567Z,79.93
2018-02-04T12:39:00.362Z,80.52
2018-02-04T12:41:29.123Z,81.17
2018-02-04T12:43:58.824Z,80.11
2018-02-04T12:46:29.069Z,79.48
2018-02-04T12:48:57.817Z,79.86
2018-02-04T12:51:26.239Z,80.86
2018-02-04T12:53:55.052Z,79.31
2018-02-04T12:56:23.620Z,79.81
2018-02-04T12:58:53.127Z,81.26
2018-02-04T13:01:21.894Z,80.92
2018-02-04T13:03:51.341Z,80.25
2018-02-04T13:06:20.118Z,80.69
2018-02-04T13:08:49.240Z,79.45
2018-02-04T13:11:19.014Z,78.41
2018-02-04T13:13:47.765Z,78.99
2018-02-04T13:16:16.685Z,78.74
2018-02-04T13:18:45.433Z,79.20
2018-02-04T13:21:13.980Z,78.80
2018-02-04T13:23:43.978Z,78.89
2018-02-04T13:26:12.567Z,76.99
2018-02-04T13:28:41.117Z,79.11
2018-02-04T13:31:11.267Z,79.05
2018-02-04T13:33:39.882Z,79.34
2018-02-04T13:36:08.828Z,79.33
2018-02-04T13:38:37.634Z,78.71
2018-02-04T13:41:08.288Z,77.85
2018-02-04T13:43:37.643Z,78.08
2018-02-04T13:46:07.182Z,77.97
2018-02-04T13:48:36.043Z,77.50
2018-02-04T13:51:05.240Z,77.32
2018-02-04T13:53:34.224Z,75.88
2018-02-04T13:56:02.809Z,77.22
2018-02-04T13:58:31.619Z,75.15
2018-02-04T14:01:00.755Z,76.34
2018-02-04T14:03:30.501Z,76.18
2018-02-04T14:05:59.595Z,76.08
2018-02-04T14:08:29.359Z,75.12
2018-02-04T14:10:58.328Z,75.55
2018-02-04T14:13:28.117Z,75.32
2018-02-04T14:15:56.936Z,75.67
2018-02-04T14:18:26.204Z,75.62
2018-02-04T14:20:56.025Z,77.15
2018-02-04T14:23:24.899Z,76.62
2018-02-04T14:25:54.103Z,76.86
2018-02-04T14:28:23.397Z,76.01
2018-02-04T14:30:52.046Z,76.57
2018-02-04T14:33:21.494Z,76.89
2018-02-04T14:35:50.236Z,74.87
2018-02-04T14:38:20.435Z,74.78
2018-02-04T14:40:49.389Z,74.12
2018-02-04T14:43:19.001Z,75.20
2018-02-04T14:45:49.764Z,76.14
2018-02-04T14:48:18.555Z,77.23
2018-02-04T14:50:48.007Z,75.18
2018-02-04T14:53:16.826Z,75.48
2018-02-04T14:55:46.109Z,75.54
2018-02-04T14:58:14.601Z,75.51
2018-02-04T15:00:43.459Z,75.36
2018-02-04T15:03:12.225Z,75.35
2018-02-04T15:05:41.019Z,75.32
2018-02-04T15:08:11.458Z,76.19
2018-02-04T15:10:40.446Z,75.90
2018-02-04T15:13:10.693Z,74.95
2018-02-04T15:15:41.274Z,76.77
2018-02-04T15:18:10.121Z,74.93
2018-02-04T15:20:39.817Z,75.32
2018-02-04T15:23:09.652Z,76.59
2018-02-04T15:25:39.421Z,76.71
2018-02-04T15:28:10.683Z,78.07
2018-02-04T15:30:40.984Z,76.18
2018-02-04T15:33:11.641Z,76.62
2018-02-04T15:35:40.606Z,76.58
2018-02-04T15:38:09.393Z,77.00
2018-02-04T15:40:41.074Z,77.82
2018-02-04T15:43:09.991Z,76.75
2018-02-04T15:45:39.040Z,77.46
2018-02-04T15:48:07.681Z,79.31
2018-02-04T15:50:36.825Z,77.74
2018-02-04T15:53:06.316Z,78.87
2018-02-04T15:55:35.098Z,78.78
2018-02-04T15:58:04.338Z,77.99
2018-02-04T16:00:34.245Z,78.37
2018-02-04T16:03:07.201Z,78.15
2018-02-04T16:05:35.759Z,78.41
2018-02-04T16:08:05.390Z,78.92
2018-02-04T16:10:34.123Z,79.43
2018-02-04T16:13:02.855Z,79.39
2018-02-04T16:15:32.287Z,79.36
2018-02-04T16:18:01.289Z,79.02
2018-02-04T16:20:29.839Z,78.41
2018-02-04T16:22:58.941Z,76.30
2018-02-04T16:25:27.666Z,77.29
2018-02-04T16:27:56.703Z,77.62
2018-02-04T16:30:25.187Z,77.53
2018-02-04T16:32:54.068Z,77.12
2018-02-04T16:35:22.864Z,77.77
2018-02-04T16:37:51.442Z,77.40
2018-02-04T16:40:20.249Z,77.97
2018-02-04T16:42:49.199Z,78.04
2018-02-04T16:45:17.787Z,78.75
2018-02-04T16:47:46.252Z,79.00
2018-02-04T16:50:15.631Z,79.71
2018-02-04T16:52:44.656Z,80.25
2018-02-04T16:55:13.276Z,79.14
2018-02-04T16:57:42.362Z,79.10
2018-02-04T17:00:11.428Z,78.33
2018-02-04T17:02:40.740Z,79.47
2018-02-04T17:05:10.172Z,79.14
2018-02-04T17:07:38.998Z,79.33
2018-02-04T17:10:08.194Z,78.44
2018-02-04T17:12:37.759Z,78.77
2018-02-04T17:15:07.527Z,78.83
2018-02-04T17:17:36.235Z,78.89
2018-02-04T17:20:05.596Z,78.72
2018-02-04T17:22:35.231Z,79.34
2018-02-04T17:25:03.776Z,80.00
2018-02-04T17:27:32.719Z,80.45
2018-02-04T17:30:01.439Z,81.02
2018-02-04T17:32:30.290Z,82.18
2018-02-04T17:35:00.104Z,83.32
2018-02-04T17:37:28.738Z,83.92
2018-02-04T17:39:58.190Z,83.90
2018-02-04T17:42:28.673Z,84.88
2018-02-04T17:44:57.566Z,84.49
2018-02-04T17:47:26.295Z,85.38
2018-02-04T17:49:54.875Z,84.94
2018-02-04T17:52:24.996Z,85.07
2018-02-04T17:54:53.643Z,84.86
2018-02-04T17:57:22.275Z,85.51
2018-02-04T17:59:51.647Z,86.71
2018-02-04T18:02:20.956Z,87.33
2018-02-04T18:04:50.568Z,87.71
2018-02-04T18:07:20.226Z,87.43
2018-02-04T18:09:48.789Z,86.55
2018-02-04T18:12:17.494Z,86.50
2018-02-04T18:14:47.599Z,87.34
2018-02-04T18:17:17.614Z,86.69
2018-02-04T18:19:47.174Z,87.34
2018-02-04T18:22:17.300Z,87.72
2018-02-04T18:24:46.379Z,87.21
2018-02-04T18:27:15.480Z,86.72
2018-02-04T18:29:45.124Z,87.23
2018-02-04T18:32:13.781Z,87.63
2018-02-04T18:34:42.401Z,87.58
2018-02-04T18:37:12.653Z,88.19
2018-02-04T18:39:41.224Z,87.93
2018-02-04T18:42:12.253Z,88.01
2018-02-04T18:44:41.813Z,88.51
2018-02-04T18:47:12.428Z,88.36
2018-02-04T18:49:40.919Z,88.39
2018-02-04T18:52:09.656Z,88.36
2018-02-04T18:54:39.423Z,88.52
2018-02-04T18:57:08.307Z,88.67
2018-02-04T18:59:38.332Z,88.69
2018-02-04T19:02:06.975Z,89.03
2018-02-04T19:04:35.622Z,88.94
2018-02-04T19:07:06.111Z,89.45
2018-02-04T19:09:35.209Z,89.04
2018-02-04T19:12:04.498Z,88.92
2018-02-04T19:14:34.314Z,88.24
2018-02-04T19:17:02.895Z,88.70
2018-02-04T19:19:38.293Z,88.83
2018-02-04T19:22:08.566Z,88.67
2018-02-04T19:24:37.173Z,88.84
2018-02-04T19:27:05.689Z,88.35
2018-02-04T19:29:34.256Z,88.49
2018-02-04T19:32:03.542Z,88.67
2018-02-04T19:34:33.392Z,88.08
2018-02-04T19:37:03.605Z,88.79
2018-02-04T19:39:32.361Z,89.07
2018-02-04T19:42:02.079Z,88.73
2018-02-04T19:44:31.543Z,88.01
2018-02-04T19:47:00.933Z,87.49
2018-02-04T19:49:30.918Z,87.94
2018-02-04T19:51:59.442Z,87.16
2018-02-04T19:54:28.274Z,86.70
2018-02-04T19:56:58.109Z,87.05
2018-02-04T19:59:26.949Z,87.29
2018-02-04T20:01:55.588Z,87.80
2018-02-04T20:04:24.235Z,88.17
2018-02-04T20:06:54.007Z,87.97
2018-02-04T20:09:24.274Z,88.05
2018-02-04T20:11:54.094Z,89.24
2018-02-04T20:14:23.673Z,88.98
2018-02-04T20:16:53.352Z,88.33
2018-02-04T20:19:22.035Z,88.14
2018-02-04T20:21:50.457Z,87.91
2018-02-04T20:24:19.046Z,88.26
2018-02-04T20:26:55.011Z,88.60
2018-02-04T20:29:23.644Z,88.39
2018-02-04T20:31:52.272Z,88.42
2018-02-04T20:34:38.725Z,88.64
2018-02-04T20:37:07.694Z,88.60
2018-02-04T20:39:36.216Z,88.63
2018-02-04T20:42:05.087Z,88.66
2018-02-04T20:44:34.127Z,88.45
2018-02-04T20:47:02.980Z,88.76
2018-02-04T20:49:31.840Z,89.10
2018-02-04T20:52:00.726Z,88.49
2018-02-04T20:54:29.814Z,88.36
2018-02-04T20:56:58.922Z,88.43
2018-02-04T20:59:27.543Z,88.59
2018-02-04T21:01:56.591Z,89.79
2018-02-04T21:04:25.176Z,89.01
2018-02-04T21:06:55.080Z,88.50
2018-02-04T21:09:23.973Z,89.11
2018-02-04T21:11:52.859Z,88.51
2018-02-04T21:14:24.738Z,88.90
2018-02-04T21:16:54.544Z,88.85
2018-02-04T21:19:23.936Z,89.17
2018-02-04T21:21:52.891Z,89.06
2018-02-04T21:24:22.759Z,89.70
2018-02-04T21:26:51.524Z,89.23
2018-02-04T21:29:20.300Z,89.34
2018-02-04T21:31:48.958Z,89.23
2018-02-04T21:34:17.794Z,88.80
2018-02-04T21:36:46.431Z,89.34
2018-02-04T21:39:16.053Z,89.36
2018-02-04T21:41:45.090Z,88.91
2018-02-04T21:44:14.482Z,88.86
2018-02-04T21:46:43.235Z,88.93
2018-02-04T21:49:11.899Z,88.84
2018-02-04T21:51:41.310Z,88.97
2018-02-04T21:54:10.031Z,89.04
2018-02-04T21:56:38.613Z,89.66
2018-02-04T21:59:07.269Z,88.67
2018-02-04T22:01:36.277Z,88.51
2018-02-04T22:04:05.441Z,88.90
2018-02-04T22:06:35.101Z,88.65
2018-02-04T22:09:03.767Z,88.43
2018-02-04T22:11:32.407Z,89.10
2018-02-04T22:14:00.812Z,88.31
2018-02-04T22:16:29.147Z,89.15
2018-02-04T22:18:57.494Z,88.30
2018-02-04T22:21:26.372Z,88.78
2018-02-04T22:23:54.834Z,88.97
2018-02-04T22:26:23.198Z,88.34
2018-02-04T22:28:51.542Z,88.72
2018-02-04T22:31:20.073Z,89.02
2018-02-04T22:33:48.478Z,88.52
2018-02-04T22:36:16.795Z,88.25
2018-02-04T22:38:45.971Z,88.58
2018-02-04T22:41:14.425Z,87.97
2018-02-04T22:43:42.922Z,88.33
2018-02-04T22:46:11.378Z,88.17
2018-02-04T22:48:39.709Z,88.07
2018-02-04T22:51:08.239Z,88.36
2018-02-04T22:53:36.571Z,88.01
2018-02-04T22:56:05.764Z,87.82
2018-02-04T22:58:34.088Z,88.21
2018-02-04T23:01:02.556Z,88.74
2018-02-04T23:03:30.935Z,89.05
2018-02-04T23:06:00.180Z,89.38
2018-02-04T23:08:28.878Z,89.13
2018-02-04T23:10:58.005Z,90.04
2018-02-04T23:13:26.409Z,89.44
2018-02-04T23:15:54.787Z,89.28
2018-02-04T23:18:23.349Z,89.13
2018-02-04T23:20:51.708Z,88.63
2018-02-04T23:23:20.064Z,89.35
2018-02-04T23:25:49.171Z,89.68
2018-02-04T23:28:18.293Z,89.41
2018-02-04T23:30:46.627Z,89.35
2018-02-04T23:33:15.730Z,88.84
2018-02-04T23:35:44.883Z,88.78
2018-02-04T23:38:13.202Z,89.39
2018-02-04T23:40:42.578Z,89.33
2018-02-04T23:43:10.890Z,90.52
2018-02-04T23:45:39.383Z,89.96
2018-02-04T23:48:07.691Z,89.03
2018-02-04T23:50:36.173Z,89.12
2018-02-04T23:53:04.474Z,89.78
2018-02-04T23:55:32.846Z,89.52
2018-02-04T23:58:01.181Z,89.83
